Terminal Aerodrome Forecast
Issued by NWS Albany, NY

Home | Current Version | Previous Version | Text Only | Print | Product List | Glossary On
Versions: 1 2 3 4 5 6 7 8 9 10 11 12
000
FTUS41 KALY 291100
TAFPOU
TAF
KPOU 291126Z 2912/3012 VRB03KT P6SM SCT040 BKN200
     FM291500 31007KT P6SM SCT050 BKN200
     FM300000 32005KT P6SM FEW050 SCT200=

USA.gov is the U.S. government's official web portal to all federal, state and local government web resources and services.